sensor_id;sensor_type;location;lat;lon;timestamp;temperature;humidity
33269;DHT22;19640;50.944;5.260;2023-06-10T00:02:08;21.00;97.60
33269;DHT22;19640;50.944;5.260;2023-06-10T00:04:34;21.00;97.90
33269;DHT22;19640;50.944;5.260;2023-06-10T00:07:00;21.00;97.40
33269;DHT22;19640;50.944;5.260;2023-06-10T00:09:26;20.80;97.70
33269;DHT22;19640;50.944;5.260;2023-06-10T00:11:52;20.60;98.80
33269;DHT22;19640;50.944;5.260;2023-06-10T00:14:19;20.60;99.00
33269;DHT22;19640;50.944;5.260;2023-06-10T00:16:45;20.60;98.80
33269;DHT22;19640;50.944;5.260;2023-06-10T00:19:11;20.50;99.50
33269;DHT22;19640;50.944;5.260;2023-06-10T00:21:39;20.60;99.60
33269;DHT22;19640;50.944;5.260;2023-06-10T00:24:07;20.70;99.20
33269;DHT22;19640;50.944;5.260;2023-06-10T00:26:38;20.80;98.60
33269;DHT22;19640;50.944;5.260;2023-06-10T00:29:03;20.70;98.90
33269;DHT22;19640;50.944;5.260;2023-06-10T00:31:29;20.50;99.40
33269;DHT22;19640;50.944;5.260;2023-06-10T00:33:55;20.40;99.90
33269;DHT22;19640;50.944;5.260;2023-06-10T00:36:21;20.40;99.90
33269;DHT22;19640;50.944;5.260;2023-06-10T00:38:47;20.40;99.90
33269;DHT22;19640;50.944;5.260;2023-06-10T00:41:14;20.30;99.90
33269;DHT22;19640;50.944;5.260;2023-06-10T00:43:39;20.30;99.90
33269;DHT22;19640;50.944;5.260;2023-06-10T00:46:05;20.20;99.90
33269;DHT22;19640;50.944;5.260;2023-06-10T00:48:31;20.20;99.90
33269;DHT22;19640;50.944;5.260;2023-06-10T00:50:57;20.10;99.90
33269;DHT22;19640;50.944;5.260;2023-06-10T00:53:23;20.20;99.90
33269;DHT22;19640;50.944;5.260;2023-06-10T00:55:50;20.20;99.90
33269;DHT22;19640;50.944;5.260;2023-06-10T00:58:16;20.30;99.90
33269;DHT22;19640;50.944;5.260;2023-06-10T01:00:42;20.20;99.90
33269;DHT22;19640;50.944;5.260;2023-06-10T01:03:08;20.30;99.90
33269;DHT22;19640;50.944;5.260;2023-06-10T01:05:34;20.20;99.90
33269;DHT22;19640;50.944;5.260;2023-06-10T01:08:09;20.20;99.90
33269;DHT22;19640;50.944;5.260;2023-06-10T01:10:41;20.10;99.90
33269;DHT22;19640;50.944;5.260;2023-06-10T01:13:10;20.00;99.90
33269;DHT22;19640;50.944;5.260;2023-06-10T01:15:38;19.90;99.90
33269;DHT22;19640;50.944;5.260;2023-06-10T01:18:06;19.90;99.90
33269;DHT22;19640;50.944;5.260;2023-06-10T01:20:34;19.90;99.90
33269;DHT22;19640;50.944;5.260;2023-06-10T01:23:02;20.00;99.90
33269;DHT22;19640;50.944;5.260;2023-06-10T01:25:29;19.90;99.90
33269;DHT22;19640;50.944;5.260;2023-06-10T01:30:27;19.80;99.90
33269;DHT22;19640;50.944;5.260;2023-06-10T01:32:58;19.70;99.90
33269;DHT22;19640;50.944;5.260;2023-06-10T01:35:25;19.70;99.90
33269;DHT22;19640;50.944;5.260;2023-06-10T01:37:56;19.70;99.90
33269;DHT22;19640;50.944;5.260;2023-06-10T01:40:24;19.70;99.90
33269;DHT22;19640;50.944;5.260;2023-06-10T01:42:51;19.60;99.90
33269;DHT22;19640;50.944;5.260;2023-06-10T01:45:17;19.60;99.90
33269;DHT22;19640;50.944;5.260;2023-06-10T01:47:43;19.60;99.90
33269;DHT22;19640;50.944;5.260;2023-06-10T01:50:09;19.60;99.90
33269;DHT22;19640;50.944;5.260;2023-06-10T01:52:35;19.70;99.90
33269;DHT22;19640;50.944;5.260;2023-06-10T01:55:01;19.60;99.90
33269;DHT22;19640;50.944;5.260;2023-06-10T01:57:28;19.70;99.90
33269;DHT22;19640;50.944;5.260;2023-06-10T01:59:53;19.70;99.90
33269;DHT22;19640;50.944;5.260;2023-06-10T02:02:19;19.70;99.90
33269;DHT22;19640;50.944;5.260;2023-06-10T02:04:47;19.70;99.90
33269;DHT22;19640;50.944;5.260;2023-06-10T02:07:13;19.80;99.90
33269;DHT22;19640;50.944;5.260;2023-06-10T02:09:38;19.80;99.90
33269;DHT22;19640;50.944;5.260;2023-06-10T02:12:05;19.90;99.90
33269;DHT22;19640;50.944;5.260;2023-06-10T02:14:32;19.80;99.90
33269;DHT22;19640;50.944;5.260;2023-06-10T02:16:58;19.80;99.90
33269;DHT22;19640;50.944;5.260;2023-06-10T02:19:24;19.70;99.90
33269;DHT22;19640;50.944;5.260;2023-06-10T02:21:52;19.60;99.90
33269;DHT22;19640;50.944;5.260;2023-06-10T02:24:17;19.70;99.90
33269;DHT22;19640;50.944;5.260;2023-06-10T02:26:43;19.70;99.90
33269;DHT22;19640;50.944;5.260;2023-06-10T02:29:09;19.70;99.90
33269;DHT22;19640;50.944;5.260;2023-06-10T02:31:35;19.70;99.90
33269;DHT22;19640;50.944;5.260;2023-06-10T02:34:01;19.60;99.90
33269;DHT22;19640;50.944;5.260;2023-06-10T02:36:28;19.60;99.90
33269;DHT22;19640;50.944;5.260;2023-06-10T02:38:54;19.60;99.90
33269;DHT22;19640;50.944;5.260;2023-06-10T02:41:19;19.50;99.90
33269;DHT22;19640;50.944;5.260;2023-06-10T02:43:47;19.40;99.90
33269;DHT22;19640;50.944;5.260;2023-06-10T02:46:13;19.30;99.90
33269;DHT22;19640;50.944;5.260;2023-06-10T02:48:45;19.30;99.90
33269;DHT22;19640;50.944;5.260;2023-06-10T02:51:11;19.30;99.90
33269;DHT22;19640;50.944;5.260;2023-06-10T02:53:37;19.40;99.90
33269;DHT22;19640;50.944;5.260;2023-06-10T02:56:03;19.30;99.90
33269;DHT22;19640;50.944;5.260;2023-06-10T02:58:28;19.30;99.90
33269;DHT22;19640;50.944;5.260;2023-06-10T03:00:54;19.30;99.90
33269;DHT22;19640;50.944;5.260;2023-06-10T03:03:20;19.40;99.90
33269;DHT22;19640;50.944;5.260;2023-06-10T03:05:48;19.40;99.90
33269;DHT22;19640;50.944;5.260;2023-06-10T03:08:14;19.50;99.90
33269;DHT22;19640;50.944;5.260;2023-06-10T03:10:39;19.50;99.90
33269;DHT22;19640;50.944;5.260;2023-06-10T03:13:05;19.50;99.90
33269;DHT22;19640;50.944;5.260;2023-06-10T03:15:31;19.40;99.90
33269;DHT22;19640;50.944;5.260;2023-06-10T03:18:01;19.30;99.90
33269;DHT22;19640;50.944;5.260;2023-06-10T03:20:27;19.40;99.90
33269;DHT22;19640;50.944;5.260;2023-06-10T03:22:54;19.20;99.90
33269;DHT22;19640;50.944;5.260;2023-06-10T03:25:20;19.30;99.90
33269;DHT22;19640;50.944;5.260;2023-06-10T03:27:46;19.20;99.90
33269;DHT22;19640;50.944;5.260;2023-06-10T03:30:13;19.20;99.90
33269;DHT22;19640;50.944;5.260;2023-06-10T03:32:39;19.20;99.90
33269;DHT22;19640;50.944;5.260;2023-06-10T03:35:07;19.30;99.90
33269;DHT22;19640;50.944;5.260;2023-06-10T03:37:32;19.30;99.90
33269;DHT22;19640;50.944;5.260;2023-06-10T03:39:58;19.20;99.90
33269;DHT22;19640;50.944;5.260;2023-06-10T03:42:24;19.20;99.90
33269;DHT22;19640;50.944;5.260;2023-06-10T03:44:50;19.20;99.90
33269;DHT22;19640;50.944;5.260;2023-06-10T03:47:15;19.20;99.90
33269;DHT22;19640;50.944;5.260;2023-06-10T03:49:41;19.20;99.90
33269;DHT22;19640;50.944;5.260;2023-06-10T03:52:07;19.20;99.90
33269;DHT22;19640;50.944;5.260;2023-06-10T03:54:33;19.00;99.90
33269;DHT22;19640;50.944;5.260;2023-06-10T03:57:00;19.00;99.90
33269;DHT22;19640;50.944;5.260;2023-06-10T03:59:26;19.10;99.90
33269;DHT22;19640;50.944;5.260;2023-06-10T04:01:52;19.10;99.90
33269;DHT22;19640;50.944;5.260;2023-06-10T04:04:17;19.10;99.90
33269;DHT22;19640;50.944;5.260;2023-06-10T04:06:43;19.20;99.90
33269;DHT22;19640;50.944;5.260;2023-06-10T04:09:10;19.20;99.90
33269;DHT22;19640;50.944;5.260;2023-06-10T04:11:36;19.10;99.90
33269;DHT22;19640;50.944;5.260;2023-06-10T04:14:02;19.10;99.90
33269;DHT22;19640;50.944;5.260;2023-06-10T04:16:28;19.20;99.90
33269;DHT22;19640;50.944;5.260;2023-06-10T04:18:54;19.20;99.90
33269;DHT22;19640;50.944;5.260;2023-06-10T04:21:20;19.20;99.90
33269;DHT22;19640;50.944;5.260;2023-06-10T04:23:45;19.20;99.90
33269;DHT22;19640;50.944;5.260;2023-06-10T04:26:11;19.10;99.90
33269;DHT22;19640;50.944;5.260;2023-06-10T04:28:38;19.20;99.90
33269;DHT22;19640;50.944;5.260;2023-06-10T04:31:03;19.20;99.90
33269;DHT22;19640;50.944;5.260;2023-06-10T04:33:30;19.20;99.90
33269;DHT22;19640;50.944;5.260;2023-06-10T04:35:56;19.20;99.90
33269;DHT22;19640;50.944;5.260;2023-06-10T04:38:22;19.40;99.90
33269;DHT22;19640;50.944;5.260;2023-06-10T04:40:47;19.60;99.90
33269;DHT22;19640;50.944;5.260;2023-06-10T04:43:13;19.50;99.90
33269;DHT22;19640;50.944;5.260;2023-06-10T04:45:39;19.60;99.90
33269;DHT22;19640;50.944;5.260;2023-06-10T04:48:05;19.50;99.90
33269;DHT22;19640;50.944;5.260;2023-06-10T04:50:32;19.50;99.90
33269;DHT22;19640;50.944;5.260;2023-06-10T04:52:58;19.60;99.90
33269;DHT22;19640;50.944;5.260;2023-06-10T04:55:24;19.70;99.90
33269;DHT22;19640;50.944;5.260;2023-06-10T04:57:51;19.90;99.90
33269;DHT22;19640;50.944;5.260;2023-06-10T05:00:17;19.90;99.90
33269;DHT22;19640;50.944;5.260;2023-06-10T05:02:43;19.90;99.90
33269;DHT22;19640;50.944;5.260;2023-06-10T05:05:10;20.00;99.90
33269;DHT22;19640;50.944;5.260;2023-06-10T05:07:36;20.00;99.90
33269;DHT22;19640;50.944;5.260;2023-06-10T05:10:02;20.10;99.90
33269;DHT22;19640;50.944;5.260;2023-06-10T05:12:28;20.20;99.90
33269;DHT22;19640;50.944;5.260;2023-06-10T05:14:54;20.40;99.90
33269;DHT22;19640;50.944;5.260;2023-06-10T05:17:20;20.40;99.90
33269;DHT22;19640;50.944;5.260;2023-06-10T05:19:45;20.50;99.90
33269;DHT22;19640;50.944;5.260;2023-06-10T05:22:12;20.50;99.90
33269;DHT22;19640;50.944;5.260;2023-06-10T05:24:38;20.50;99.90
33269;DHT22;19640;50.944;5.260;2023-06-10T05:27:05;20.50;99.90
33269;DHT22;19640;50.944;5.260;2023-06-10T05:29:32;20.50;99.90
33269;DHT22;19640;50.944;5.260;2023-06-10T05:31:57;20.60;99.90
33269;DHT22;19640;50.944;5.260;2023-06-10T05:34:27;20.60;99.90
33269;DHT22;19640;50.944;5.260;2023-06-10T05:36:53;20.60;99.90
33269;DHT22;19640;50.944;5.260;2023-06-10T05:39:19;20.60;99.90
33269;DHT22;19640;50.944;5.260;2023-06-10T05:41:45;20.70;99.90
33269;DHT22;19640;50.944;5.260;2023-06-10T05:44:11;20.80;99.90
33269;DHT22;19640;50.944;5.260;2023-06-10T05:46:36;21.00;99.90
33269;DHT22;19640;50.944;5.260;2023-06-10T05:49:02;21.10;99.90
33269;DHT22;19640;50.944;5.260;2023-06-10T05:51:28;21.30;99.90
33269;DHT22;19640;50.944;5.260;2023-06-10T05:53:54;21.30;99.90
33269;DHT22;19640;50.944;5.260;2023-06-10T05:56:20;21.30;99.90
33269;DHT22;19640;50.944;5.260;2023-06-10T05:58:48;21.40;99.90
33269;DHT22;19640;50.944;5.260;2023-06-10T06:01:14;21.50;99.90
33269;DHT22;19640;50.944;5.260;2023-06-10T06:03:39;21.70;99.90
33269;DHT22;19640;50.944;5.260;2023-06-10T06:06:05;22.00;99.90
33269;DHT22;19640;50.944;5.260;2023-06-10T06:08:31;22.00;99.90
33269;DHT22;19640;50.944;5.260;2023-06-10T06:10:57;22.00;99.90
33269;DHT22;19640;50.944;5.260;2023-06-10T06:13:23;22.20;99.90
33269;DHT22;19640;50.944;5.260;2023-06-10T06:15:49;22.10;99.90
33269;DHT22;19640;50.944;5.260;2023-06-10T06:18:15;22.20;99.90
33269;DHT22;19640;50.944;5.260;2023-06-10T06:20:41;22.20;99.90
33269;DHT22;19640;50.944;5.260;2023-06-10T06:23:06;22.50;99.90
33269;DHT22;19640;50.944;5.260;2023-06-10T06:25:35;22.90;99.90
33269;DHT22;19640;50.944;5.260;2023-06-10T06:28:01;23.90;99.90
33269;DHT22;19640;50.944;5.260;2023-06-10T06:30:27;25.00;98.90
33269;DHT22;19640;50.944;5.260;2023-06-10T06:32:53;26.10;97.00
33269;DHT22;19640;50.944;5.260;2023-06-10T06:35:19;26.80;95.60
33269;DHT22;19640;50.944;5.260;2023-06-10T06:37:44;27.00;94.90
33269;DHT22;19640;50.944;5.260;2023-06-10T06:40:10;28.60;93.80
33269;DHT22;19640;50.944;5.260;2023-06-10T06:42:36;29.50;92.50
33269;DHT22;19640;50.944;5.260;2023-06-10T06:45:02;29.10;90.60
33269;DHT22;19640;50.944;5.260;2023-06-10T06:47:27;29.50;90.00
33269;DHT22;19640;50.944;5.260;2023-06-10T06:49:53;29.60;86.80
33269;DHT22;19640;50.944;5.260;2023-06-10T06:52:19;30.20;88.60
33269;DHT22;19640;50.944;5.260;2023-06-10T06:54:45;30.10;87.90
33269;DHT22;19640;50.944;5.260;2023-06-10T06:57:10;31.10;84.90
33269;DHT22;19640;50.944;5.260;2023-06-10T06:59:36;31.10;82.90
33269;DHT22;19640;50.944;5.260;2023-06-10T07:02:03;30.60;83.00
33269;DHT22;19640;50.944;5.260;2023-06-10T07:04:29;30.30;83.20
33269;DHT22;19640;50.944;5.260;2023-06-10T07:06:54;29.70;82.40
33269;DHT22;19640;50.944;5.260;2023-06-10T07:09:20;30.60;83.70
33269;DHT22;19640;50.944;5.260;2023-06-10T07:11:47;31.30;79.60
33269;DHT22;19640;50.944;5.260;2023-06-10T07:14:12;30.60;81.40
33269;DHT22;19640;50.944;5.260;2023-06-10T07:16:38;30.20;82.50
33269;DHT22;19640;50.944;5.260;2023-06-10T07:19:03;30.30;81.40
33269;DHT22;19640;50.944;5.260;2023-06-10T07:21:30;30.30;81.30
33269;DHT22;19640;50.944;5.260;2023-06-10T07:23:56;31.00;79.10
33269;DHT22;19640;50.944;5.260;2023-06-10T07:26:22;31.00;79.90
33269;DHT22;19640;50.944;5.260;2023-06-10T07:28:48;31.30;81.60
33269;DHT22;19640;50.944;5.260;2023-06-10T07:31:14;31.30;80.00
33269;DHT22;19640;50.944;5.260;2023-06-10T07:33:40;31.40;78.60
33269;DHT22;19640;50.944;5.260;2023-06-10T07:36:06;32.10;79.70
33269;DHT22;19640;50.944;5.260;2023-06-10T07:38:32;31.20;76.40
33269;DHT22;19640;50.944;5.260;2023-06-10T07:40:57;31.20;79.90
33269;DHT22;19640;50.944;5.260;2023-06-10T07:43:24;30.80;78.50
33269;DHT22;19640;50.944;5.260;2023-06-10T07:45:50;30.50;78.90
33269;DHT22;19640;50.944;5.260;2023-06-10T07:48:15;30.80;77.50
33269;DHT22;19640;50.944;5.260;2023-06-10T07:50:41;30.30;79.80
33269;DHT22;19640;50.944;5.260;2023-06-10T07:53:07;30.20;79.40
33269;DHT22;19640;50.944;5.260;2023-06-10T07:55:33;30.60;81.00
33269;DHT22;19640;50.944;5.260;2023-06-10T07:57:59;31.20;79.10
33269;DHT22;19640;50.944;5.260;2023-06-10T08:00:24;31.70;77.10
33269;DHT22;19640;50.944;5.260;2023-06-10T08:02:50;32.30;77.80
33269;DHT22;19640;50.944;5.260;2023-06-10T08:05:17;31.30;76.50
33269;DHT22;19640;50.944;5.260;2023-06-10T08:07:44;30.90;77.30
33269;DHT22;19640;50.944;5.260;2023-06-10T08:10:09;30.80;79.30
33269;DHT22;19640;50.944;5.260;2023-06-10T08:12:35;30.10;78.30
33269;DHT22;19640;50.944;5.260;2023-06-10T08:15:01;30.80;81.10
33269;DHT22;19640;50.944;5.260;2023-06-10T08:17:29;31.20;78.50
33269;DHT22;19640;50.944;5.260;2023-06-10T08:19:55;30.10;79.50
33269;DHT22;19640;50.944;5.260;2023-06-10T08:22:21;29.10;82.80
33269;DHT22;19640;50.944;5.260;2023-06-10T08:24:47;28.90;83.70
33269;DHT22;19640;50.944;5.260;2023-06-10T08:27:12;28.70;83.50
33269;DHT22;19640;50.944;5.260;2023-06-10T08:29:39;28.60;83.80
33269;DHT22;19640;50.944;5.260;2023-06-10T08:32:05;28.60;84.60
33269;DHT22;19640;50.944;5.260;2023-06-10T08:34:32;28.30;86.50
33269;DHT22;19640;50.944;5.260;2023-06-10T08:36:58;28.10;82.20
33269;DHT22;19640;50.944;5.260;2023-06-10T08:39:24;27.90;83.60
33269;DHT22;19640;50.944;5.260;2023-06-10T08:42:13;27.90;84.80
33269;DHT22;19640;50.944;5.260;2023-06-10T08:44:43;28.00;84.60
33269;DHT22;19640;50.944;5.260;2023-06-10T08:47:14;28.00;84.20
33269;DHT22;19640;50.944;5.260;2023-06-10T08:49:44;28.10;83.50
33269;DHT22;19640;50.944;5.260;2023-06-10T08:52:15;28.00;85.70
33269;DHT22;19640;50.944;5.260;2023-06-10T08:54:48;27.80;84.20
33269;DHT22;19640;50.944;5.260;2023-06-10T08:57:15;28.00;85.40
33269;DHT22;19640;50.944;5.260;2023-06-10T08:59:42;28.10;84.20
33269;DHT22;19640;50.944;5.260;2023-06-10T09:02:08;28.40;84.70
33269;DHT22;19640;50.944;5.260;2023-06-10T09:04:35;28.70;84.50
33269;DHT22;19640;50.944;5.260;2023-06-10T09:07:02;28.70;84.70
33269;DHT22;19640;50.944;5.260;2023-06-10T09:09:29;28.90;83.20
33269;DHT22;19640;50.944;5.260;2023-06-10T09:11:56;29.10;83.90
33269;DHT22;19640;50.944;5.260;2023-06-10T09:14:22;29.20;83.50
33269;DHT22;19640;50.944;5.260;2023-06-10T09:16:49;29.30;79.20
33269;DHT22;19640;50.944;5.260;2023-06-10T09:19:16;29.30;79.30
33269;DHT22;19640;50.944;5.260;2023-06-10T09:21:42;29.20;82.20
33269;DHT22;19640;50.944;5.260;2023-06-10T09:24:08;28.90;80.50
33269;DHT22;19640;50.944;5.260;2023-06-10T09:26:34;28.90;83.50
33269;DHT22;19640;50.944;5.260;2023-06-10T09:29:07;28.90;84.90
33269;DHT22;19640;50.944;5.260;2023-06-10T09:31:38;29.20;84.10
33269;DHT22;19640;50.944;5.260;2023-06-10T09:34:14;29.30;81.10
33269;DHT22;19640;50.944;5.260;2023-06-10T09:36:41;29.50;79.70
33269;DHT22;19640;50.944;5.260;2023-06-10T09:39:18;29.40;78.10
33269;DHT22;19640;50.944;5.260;2023-06-10T09:41:45;29.30;80.10
33269;DHT22;19640;50.944;5.260;2023-06-10T09:44:21;29.30;79.30
33269;DHT22;19640;50.944;5.260;2023-06-10T09:46:48;29.30;78.50
33269;DHT22;19640;50.944;5.260;2023-06-10T09:49:18;29.50;79.60
33269;DHT22;19640;50.944;5.260;2023-06-10T09:51:54;29.20;78.20
33269;DHT22;19640;50.944;5.260;2023-06-10T09:54:21;29.30;76.50
33269;DHT22;19640;50.944;5.260;2023-06-10T09:56:48;29.30;75.60
33269;DHT22;19640;50.944;5.260;2023-06-10T09:59:14;29.50;80.90
33269;DHT22;19640;50.944;5.260;2023-06-10T10:01:40;29.70;78.90
33269;DHT22;19640;50.944;5.260;2023-06-10T10:04:05;29.90;78.90
33269;DHT22;19640;50.944;5.260;2023-06-10T10:06:31;29.60;74.40
33269;DHT22;19640;50.944;5.260;2023-06-10T10:08:57;29.60;79.20
33269;DHT22;19640;50.944;5.260;2023-06-10T10:11:24;29.60;76.40
33269;DHT22;19640;50.944;5.260;2023-06-10T10:13:52;29.60;74.70
33269;DHT22;19640;50.944;5.260;2023-06-10T10:16:29;29.60;75.10
33269;DHT22;19640;50.944;5.260;2023-06-10T10:18:57;30.00;78.10
33269;DHT22;19640;50.944;5.260;2023-06-10T10:21:27;30.20;75.60
33269;DHT22;19640;50.944;5.260;2023-06-10T10:24:05;30.50;75.60
33269;DHT22;19640;50.944;5.260;2023-06-10T10:26:33;29.90;69.70
33269;DHT22;19640;50.944;5.260;2023-06-10T10:29:31;29.80;71.50
33269;DHT22;19640;50.944;5.260;2023-06-10T10:31:59;29.90;75.80
33269;DHT22;19640;50.944;5.260;2023-06-10T10:34:53;30.20;72.70
33269;DHT22;19640;50.944;5.260;2023-06-10T10:37:23;30.00;71.80
33269;DHT22;19640;50.944;5.260;2023-06-10T10:39:49;30.20;73.10
33269;DHT22;19640;50.944;5.260;2023-06-10T10:42:16;29.90;71.20
33269;DHT22;19640;50.944;5.260;2023-06-10T10:44:42;29.70;71.10
33269;DHT22;19640;50.944;5.260;2023-06-10T10:47:09;30.10;72.80
33269;DHT22;19640;50.944;5.260;2023-06-10T10:49:36;30.20;69.20
33269;DHT22;19640;50.944;5.260;2023-06-10T10:52:03;29.90;70.30
33269;DHT22;19640;50.944;5.260;2023-06-10T10:54:36;30.20;71.60
33269;DHT22;19640;50.944;5.260;2023-06-10T10:59:53;30.10;70.00
33269;DHT22;19640;50.944;5.260;2023-06-10T11:05:01;30.60;73.50
33269;DHT22;19640;50.944;5.260;2023-06-10T11:07:30;30.50;70.90
33269;DHT22;19640;50.944;5.260;2023-06-10T11:12:54;30.50;74.50
33269;DHT22;19640;50.944;5.260;2023-06-10T11:15:23;30.40;68.20
33269;DHT22;19640;50.944;5.260;2023-06-10T11:18:09;30.40;72.20
33269;DHT22;19640;50.944;5.260;2023-06-10T11:21:08;30.30;68.30
33269;DHT22;19640;50.944;5.260;2023-06-10T11:23:38;30.20;69.20
33269;DHT22;19640;50.944;5.260;2023-06-10T11:26:14;30.40;72.00
33269;DHT22;19640;50.944;5.260;2023-06-10T11:29:00;30.50;71.70
33269;DHT22;19640;50.944;5.260;2023-06-10T11:31:27;30.30;66.00
33269;DHT22;19640;50.944;5.260;2023-06-10T11:36:21;30.50;69.60
33269;DHT22;19640;50.944;5.260;2023-06-10T11:38:46;30.50;67.20
33269;DHT22;19640;50.944;5.260;2023-06-10T11:41:14;30.60;70.20
33269;DHT22;19640;50.944;5.260;2023-06-10T11:43:43;30.60;71.30
33269;DHT22;19640;50.944;5.260;2023-06-10T11:46:10;30.40;68.00
33269;DHT22;19640;50.944;5.260;2023-06-10T11:48:36;30.20;64.80
33269;DHT22;19640;50.944;5.260;2023-06-10T11:51:06;30.00;71.80
33269;DHT22;19640;50.944;5.260;2023-06-10T11:53:32;30.30;69.40
33269;DHT22;19640;50.944;5.260;2023-06-10T11:55:57;30.30;68.90
33269;DHT22;19640;50.944;5.260;2023-06-10T11:58:23;30.30;67.30
33269;DHT22;19640;50.944;5.260;2023-06-10T12:00:52;30.40;67.30
33269;DHT22;19640;50.944;5.260;2023-06-10T12:03:24;30.40;66.00
33269;DHT22;19640;50.944;5.260;2023-06-10T12:06:04;30.30;65.20
33269;DHT22;19640;50.944;5.260;2023-06-10T12:08:30;30.20;64.90
33269;DHT22;19640;50.944;5.260;2023-06-10T12:10:57;30.30;65.50
33269;DHT22;19640;50.944;5.260;2023-06-10T12:13:25;30.20;62.60
33269;DHT22;19640;50.944;5.260;2023-06-10T12:15:51;30.40;66.40
33269;DHT22;19640;50.944;5.260;2023-06-10T12:18:21;30.40;66.90
33269;DHT22;19640;50.944;5.260;2023-06-10T12:20:47;30.50;65.20
33269;DHT22;19640;50.944;5.260;2023-06-10T12:23:14;30.50;66.00
33269;DHT22;19640;50.944;5.260;2023-06-10T12:25:53;30.40;64.90
33269;DHT22;19640;50.944;5.260;2023-06-10T12:28:26;30.30;66.10
33269;DHT22;19640;50.944;5.260;2023-06-10T12:30:52;30.30;62.00
33269;DHT22;19640;50.944;5.260;2023-06-10T12:33:31;30.30;64.60
33269;DHT22;19640;50.944;5.260;2023-06-10T12:35:56;30.40;65.30
33269;DHT22;19640;50.944;5.260;2023-06-10T12:38:23;30.50;64.80
33269;DHT22;19640;50.944;5.260;2023-06-10T12:40:50;30.40;68.00
33269;DHT22;19640;50.944;5.260;2023-06-10T12:43:23;30.20;61.50
33269;DHT22;19640;50.944;5.260;2023-06-10T12:45:49;30.30;66.90
33269;DHT22;19640;50.944;5.260;2023-06-10T12:48:22;30.50;66.50
33269;DHT22;19640;50.944;5.260;2023-06-10T12:50:53;30.50;66.70
33269;DHT22;19640;50.944;5.260;2023-06-10T12:53:19;30.50;65.60
33269;DHT22;19640;50.944;5.260;2023-06-10T12:55:46;30.30;63.00
33269;DHT22;19640;50.944;5.260;2023-06-10T12:58:12;30.40;62.30
33269;DHT22;19640;50.944;5.260;2023-06-10T13:00:38;30.20;61.10
33269;DHT22;19640;50.944;5.260;2023-06-10T13:03:04;30.30;59.50
33269;DHT22;19640;50.944;5.260;2023-06-10T13:05:31;30.20;60.50
33269;DHT22;19640;50.944;5.260;2023-06-10T13:07:57;30.20;64.00
33269;DHT22;19640;50.944;5.260;2023-06-10T13:10:23;30.30;61.60
33269;DHT22;19640;50.944;5.260;2023-06-10T13:12:51;30.30;61.60
33269;DHT22;19640;50.944;5.260;2023-06-10T13:15:17;30.40;64.80
33269;DHT22;19640;50.944;5.260;2023-06-10T13:17:46;30.30;61.70
33269;DHT22;19640;50.944;5.260;2023-06-10T13:20:16;30.40;62.70
33269;DHT22;19640;50.944;5.260;2023-06-10T13:22:42;30.40;59.00
33269;DHT22;19640;50.944;5.260;2023-06-10T13:25:08;30.40;59.40
33269;DHT22;19640;50.944;5.260;2023-06-10T13:27:35;30.50;59.40
33269;DHT22;19640;50.944;5.260;2023-06-10T13:30:07;30.50;59.30
33269;DHT22;19640;50.944;5.260;2023-06-10T13:32:34;30.50;60.40
33269;DHT22;19640;50.944;5.260;2023-06-10T13:35:00;30.50;62.00
33269;DHT22;19640;50.944;5.260;2023-06-10T13:37:26;30.60;61.50
33269;DHT22;19640;50.944;5.260;2023-06-10T13:39:51;30.50;61.80
33269;DHT22;19640;50.944;5.260;2023-06-10T13:42:18;30.60;64.20
33269;DHT22;19640;50.944;5.260;2023-06-10T13:44:44;30.60;61.00
33269;DHT22;19640;50.944;5.260;2023-06-10T13:47:09;30.40;59.10
33269;DHT22;19640;50.944;5.260;2023-06-10T13:49:35;30.50;60.70
33269;DHT22;19640;50.944;5.260;2023-06-10T13:52:02;30.30;58.80
33269;DHT22;19640;50.944;5.260;2023-06-10T13:54:27;30.30;60.30
33269;DHT22;19640;50.944;5.260;2023-06-10T13:56:53;30.30;61.60
33269;DHT22;19640;50.944;5.260;2023-06-10T13:59:20;30.50;61.20
33269;DHT22;19640;50.944;5.260;2023-06-10T14:01:46;30.60;59.60
33269;DHT22;19640;50.944;5.260;2023-06-10T14:04:11;30.60;63.50
33269;DHT22;19640;50.944;5.260;2023-06-10T14:06:37;30.80;62.50
33269;DHT22;19640;50.944;5.260;2023-06-10T14:09:03;30.80;62.60
33269;DHT22;19640;50.944;5.260;2023-06-10T14:11:29;30.70;62.00
33269;DHT22;19640;50.944;5.260;2023-06-10T14:13:54;30.80;60.00
33269;DHT22;19640;50.944;5.260;2023-06-10T14:16:24;30.70;63.30
33269;DHT22;19640;50.944;5.260;2023-06-10T14:18:50;30.80;59.80
33269;DHT22;19640;50.944;5.260;2023-06-10T14:21:19;31.00;61.50
33269;DHT22;19640;50.944;5.260;2023-06-10T14:23:44;30.80;58.50
33269;DHT22;19640;50.944;5.260;2023-06-10T14:26:11;30.80;56.10
33269;DHT22;19640;50.944;5.260;2023-06-10T14:28:37;31.10;60.60
33269;DHT22;19640;50.944;5.260;2023-06-10T14:31:03;31.20;58.20
33269;DHT22;19640;50.944;5.260;2023-06-10T14:33:28;31.00;59.00
33269;DHT22;19640;50.944;5.260;2023-06-10T14:35:54;30.80;59.30
33269;DHT22;19640;50.944;5.260;2023-06-10T14:38:20;30.70;58.70
33269;DHT22;19640;50.944;5.260;2023-06-10T14:40:46;30.60;63.30
33269;DHT22;19640;50.944;5.260;2023-06-10T14:43:11;30.60;59.20
33269;DHT22;19640;50.944;5.260;2023-06-10T14:45:39;30.50;59.10
33269;DHT22;19640;50.944;5.260;2023-06-10T14:48:06;30.30;59.80
33269;DHT22;19640;50.944;5.260;2023-06-10T14:50:32;30.30;60.70
33269;DHT22;19640;50.944;5.260;2023-06-10T14:52:58;30.40;63.10
33269;DHT22;19640;50.944;5.260;2023-06-10T14:55:24;30.30;60.00
33269;DHT22;19640;50.944;5.260;2023-06-10T14:57:50;30.40;61.70
33269;DHT22;19640;50.944;5.260;2023-06-10T15:00:16;30.50;60.00
33269;DHT22;19640;50.944;5.260;2023-06-10T15:02:46;30.40;59.60
33269;DHT22;19640;50.944;5.260;2023-06-10T15:05:15;30.30;58.70
33269;DHT22;19640;50.944;5.260;2023-06-10T15:07:41;30.20;59.70
33269;DHT22;19640;50.944;5.260;2023-06-10T15:10:07;30.30;58.60
33269;DHT22;19640;50.944;5.260;2023-06-10T15:12:34;30.60;58.50
33269;DHT22;19640;50.944;5.260;2023-06-10T15:14:59;30.70;59.70
33269;DHT22;19640;50.944;5.260;2023-06-10T15:17:25;30.80;63.70
33269;DHT22;19640;50.944;5.260;2023-06-10T15:19:51;30.70;60.70
33269;DHT22;19640;50.944;5.260;2023-06-10T15:22:17;30.70;60.70
33269;DHT22;19640;50.944;5.260;2023-06-10T15:24:42;30.80;60.00
33269;DHT22;19640;50.944;5.260;2023-06-10T15:27:08;30.90;57.90
33269;DHT22;19640;50.944;5.260;2023-06-10T15:29:34;31.00;63.20
33269;DHT22;19640;50.944;5.260;2023-06-10T15:32:00;30.90;63.50
33269;DHT22;19640;50.944;5.260;2023-06-10T15:34:26;30.80;63.50
33269;DHT22;19640;50.944;5.260;2023-06-10T15:36:51;30.50;61.20
33269;DHT22;19640;50.944;5.260;2023-06-10T15:39:17;30.40;63.50
33269;DHT22;19640;50.944;5.260;2023-06-10T15:41:44;30.20;65.00
33269;DHT22;19640;50.944;5.260;2023-06-10T15:44:10;30.00;66.20